Cecchina, Italy

12:24 AM CET on December 04, 2016 (GMT +0100)
ILAZIOAL3 | | Change Station

Elev 708 ft 41.69 °N, 12.65 °E | Updated 4 minutes ago

Mostly Cloudy
Mostly Cloudy
51.2 °F
Feels Like 51.2 °F
N
2.0
Wind Variable Wind from East
Gusts 2.0 mph

Today
High -- | Low -- °F
--% Chance of Precip.
Yesterday
High -- | Low -- °F
Precip. -- in
Pressure 30.12 in
Visibility 6.2 miles
Clouds Scattered Clouds 5000 ft
Mostly Cloudy 7000 ft
Dew Point 44 °F
Humidity 76%
Rainfall 0.00 in
Snow Depth Not available.
7:20 AM 4:39 PM
Waxing Crescent, 18% visible
METAR LIRE 032255Z 10008KT 9999 SCT050 BKN070 11/08 Q1020 RMK OVC VIS MIN 9999 WIND THR13 12007KT WIND THR31 12008KT BLU
Pressure 30.12 in
Visibility 6.2 miles
Clouds Scattered Clouds 5000 ft
Mostly Cloudy 7000 ft
Dew Point 44 °F
Humidity 76%
Rainfall 0.00 in
Snow Depth Not available.
7:20 AM 4:39 PM
Waxing Crescent, 18% visible
METAR LIRE 032255Z 10008KT 9999 SCT050 BKN070 11/08 Q1020 RMK OVC VIS MIN 9999 WIND THR13 12007KT WIND THR31 12008KT BLU

10-Day Weather Forecast

×

Almanac

Astronomy

Dec. 04, 2016 Rise Set
Actual Time
Civil Twilight
Nautical Twilight
Astronomical Twilight
Moon
Length of Visible Light
Length of Day
Tomorrow will be .
, % of the Moon is Illuminated

Today's Extremes

Country Highs Country Lows

Community

WunderPhotos

Upload Photos

1,955,540 photos uploaded!

WunderBlog® & News

Nearby

Air Quality

  Air Quality AQ Index Pollutant
Not available.

Snow Depth

Station Depth Elevation

Earthquake Activity

City Distance Mag. Time & Date
Minimum magnitude displayed is 2.5.

Coastal Water Temperatures

Place Temperature

Stations

Nearby Weather Stations

Station Location Temp. Windchill Dew Point Humidity Wind Precip. Elev Updated Type